Itapetim, Brazil
Current Conditions -  °F | °C
As of 3:00 PM on Sunday 25 Jan 2015 (Local Time) from SBKG Reporting Station
Scattered Clouds Scattered Clouds  
Wind Chill: 88°   Ceiling: Unl
Heat Index: 88°   Visibility: 6mi
Dew Point: 63°   Wind: 15mph
Humidity: 43%   Direction: 90°E
Pressure: 29.91"   Gusts: NA
Location:  7.38°S, 37.19°W
Report Text: SBKG 251800Z 09013KT 9999 SCT040 31/17 Q1013
Loading
Personal Weather Stations






























Interactive Weather Map New forecast layout! Learn more

10-Day Weather Forecast

Advertisements
Track Severe Weather on mobile